Time;durP1;ratioP1;P1;durP2;ratioP2;P2;SDS_P1;SDS_P2;PMS_P1;PMS_P2;Temp;Humidity;BMP_temperature;BMP_pressure;BME280_temperature;BME280_humidity;BME280_pressure;Samples;Min_cycle;Max_cycle;Signal;HPM_P1;HPM_P2
2023/01/11 00:00:24;;;;;;;;;;;6.70;99.90;;;;;;5073899;28;20360;-73
2023/01/11 00:02:56;;;;;;;;;;;6.40;99.90;;;;;;5074221;28;19948;-75
2023/01/11 00:05:22;;;;;;;;;;;6.30;99.90;;;;;;5074201;28;19920;-74
2023/01/11 00:07:47;;;;;;;;;;;6.50;99.90;;;;;;5056235;28;19917;-73
2023/01/11 00:10:13;;;;;;;;;;;6.50;99.90;;;;;;5074496;28;19959;-73
2023/01/11 00:12:39;;;;;;;;;;;6.50;99.90;;;;;;5056224;28;19944;-76
2023/01/11 00:15:04;;;;;;;;;;;6.70;99.90;;;;;;5054468;28;19986;-73
2023/01/11 00:17:30;;;;;;;;;;;6.70;99.90;;;;;;5054586;28;19966;-72
2023/01/11 00:19:55;;;;;;;;;;;6.70;99.90;;;;;;5073721;28;20383;-73
2023/01/11 00:22:21;;;;;;;;;;;6.80;99.90;;;;;;5055712;28;20019;-74
2023/01/11 00:24:47;;;;;;;;;;;6.80;99.90;;;;;;5073572;28;19920;-74
2023/01/11 00:27:12;;;;;;;;;;;6.90;99.90;;;;;;5056145;28;19963;-74
2023/01/11 00:29:38;;;;;;;;;;;6.90;99.90;;;;;;5056214;28;19913;-74
2023/01/11 00:32:04;;;;;;;;;;;6.90;99.90;;;;;;5073764;28;20275;-74
2023/01/11 00:34:29;;;;;;;;;;;7.00;99.90;;;;;;5074186;28;20281;-74
2023/01/11 00:36:55;;;;;;;;;;;7.10;99.90;;;;;;5074051;28;19912;-74
2023/01/11 00:39:20;;;;;;;;;;;7.00;99.90;;;;;;5075524;28;19981;-74
2023/01/11 00:49:59;;;;;;;;;;;6.60;99.90;;;;;;5077601;28;20280;-74
2023/01/11 00:52:24;;;;;;;;;;;6.60;99.90;;;;;;5077405;28;19908;-74
2023/01/11 00:54:50;;;;;;;;;;;6.60;99.90;;;;;;5077510;28;19912;-74
2023/01/11 00:57:16;;;;;;;;;;;6.50;99.90;;;;;;5077700;28;19966;-75
2023/01/11 00:59:41;;;;;;;;;;;6.50;99.90;;;;;;5059702;28;19922;-74
2023/01/11 01:02:07;;;;;;;;;;;6.50;99.90;;;;;;5075037;28;19913;-73
2023/01/11 01:04:33;;;;;;;;;;;6.40;99.90;;;;;;5063746;28;20291;-74
2023/01/11 01:06:59;;;;;;;;;;;6.40;99.90;;;;;;5056197;28;19917;-74
2023/01/11 01:09:25;;;;;;;;;;;6.50;99.90;;;;;;5057979;28;19912;-74
2023/01/11 01:11:50;;;;;;;;;;;6.40;99.90;;;;;;5066625;28;19912;-75
2023/01/11 01:14:25;;;;;;;;;;;6.40;99.90;;;;;;5077542;28;20249;-75
2023/01/11 01:16:54;;;;;;;;;;;6.50;99.90;;;;;;5077339;28;20027;-74
2023/01/11 01:19:21;;;;;;;;;;;6.60;99.90;;;;;;5059585;28;19913;-74
2023/01/11 01:21:47;;;;;;;;;;;6.70;99.90;;;;;;5059447;28;20376;-75
2023/01/11 01:24:13;;;;;;;;;;;6.70;99.90;;;;;;5077134;28;19982;-75
2023/01/11 01:26:38;;;;;;;;;;;6.70;99.90;;;;;;5059433;28;20371;-74
2023/01/11 01:29:04;;;;;;;;;;;6.70;99.90;;;;;;5076781;28;19920;-74
2023/01/11 01:31:29;;;;;;;;;;;6.60;99.90;;;;;;5076883;28;19912;-74
2023/01/11 01:33:56;;;;;;;;;;;6.60;99.90;;;;;;5077099;28;19912;-74
2023/01/11 01:36:21;;;;;;;;;;;6.70;99.90;;;;;;5077557;28;19934;-74
2023/01/11 01:38:47;;;;;;;;;;;6.60;99.90;;;;;;5076805;28;20403;-75
2023/01/11 01:41:13;;;;;;;;;;;6.50;99.90;;;;;;5076870;28;19912;-74
2023/01/11 01:43:58;;;;;;;;;;;6.40;99.90;;;;;;5076518;28;19913;-74
2023/01/11 01:46:28;;;;;;;;;;;6.40;99.90;;;;;;5076760;28;19968;-74
2023/01/11 01:48:58;;;;;;;;;;;6.50;99.90;;;;;;5076786;28;19920;-74
2023/01/11 01:51:26;;;;;;;;;;;6.60;99.90;;;;;;5076155;28;19913;-74
2023/01/11 01:53:53;;;;;;;;;;;6.50;99.90;;;;;;5076624;28;19919;-74
2023/01/11 01:56:30;;;;;;;;;;;6.60;99.90;;;;;;5076599;28;20398;-75
2023/01/11 01:59:01;;;;;;;;;;;6.60;99.90;;;;;;5059067;28;20087;-75
2023/01/11 02:04:25;;;;;;;;;;;6.50;99.90;;;;;;5076138;28;19941;-74
2023/01/11 02:06:57;;;;;;;;;;;6.60;99.90;;;;;;5076149;28;19921;-74
2023/01/11 02:09:31;;;;;;;;;;;6.60;99.90;;;;;;5076108;28;20271;-74
2023/01/11 02:11:57;;;;;;;;;;;6.70;99.90;;;;;;5076146;28;19912;-74
2023/01/11 02:14:23;;;;;;;;;;;6.70;99.90;;;;;;5076175;28;19993;-74
2023/01/11 02:16:49;;;;;;;;;;;6.80;99.90;;;;;;5076222;28;20348;-74
2023/01/11 02:19:27;;;;;;;;;;;7.00;99.90;;;;;;5076458;28;19970;-74
2023/01/11 02:22:12;;;;;;;;;;;7.10;99.90;;;;;;5058415;28;19912;-74
2023/01/11 02:24:56;;;;;;;;;;;7.30;99.90;;;;;;5076258;28;19919;-73
2023/01/11 02:27:28;;;;;;;;;;;7.30;99.90;;;;;;5074358;28;19924;-73
2023/01/11 02:30:02;;;;;;;;;;;7.40;99.90;;;;;;5074832;28;19995;-75
2023/01/11 02:32:32;;;;;;;;;;;7.40;99.90;;;;;;5075872;28;20003;-73
2023/01/11 02:35:07;;;;;;;;;;;7.30;99.90;;;;;;5075859;28;20267;-73
2023/01/11 02:37:46;;;;;;;;;;;7.30;99.90;;;;;;5075823;28;19912;-73
2023/01/11 02:40:31;;;;;;;;;;;7.20;99.90;;;;;;5075912;28;20306;-75
2023/01/11 02:45:58;;;;;;;;;;;7.10;99.90;;;;;;5075688;28;19966;-74
2023/01/11 02:48:32;;;;;;;;;;;7.20;99.90;;;;;;5075618;28;20271;-75
2023/01/11 02:50:58;;;;;;;;;;;6.80;99.90;;;;;;5057442;28;20287;-73
2023/01/11 02:53:42;;;;;;;;;;;6.70;99.90;;;;;;5075665;28;19919;-73
2023/01/11 02:56:10;;;;;;;;;;;6.80;99.90;;;;;;5075513;28;19956;-73
2023/01/11 02:58:37;;;;;;;;;;;7.00;99.90;;;;;;5057362;28;20295;-76
2023/01/11 03:01:03;;;;;;;;;;;7.10;99.90;;;;;;5075005;28;19923;-73
2023/01/11 03:03:29;;;;;;;;;;;;;;;;;;5057186;28;19913;-79
2023/01/11 03:06:01;;;;;;;;;;;7.70;99.90;;;;;;5057172;28;20390;-74
2023/01/11 03:08:43;;;;;;;;;;;7.80;99.90;;;;;;5074546;28;20291;-75
2023/01/11 03:11:13;;;;;;;;;;;7.70;99.90;;;;;;5056906;28;19969;-74
2023/01/11 03:13:51;;;;;;;;;;;7.80;99.90;;;;;;5074941;28;20347;-74
2023/01/11 03:16:21;;;;;;;;;;;7.80;99.90;;;;;;5074937;28;19916;-74
2023/01/11 03:18:51;;;;;;;;;;;7.70;99.90;;;;;;5057170;28;19916;-74
2023/01/11 03:21:17;;;;;;;;;;;7.70;99.90;;;;;;5074983;28;19913;-75
2023/01/11 03:23:42;;;;;;;;;;;7.60;99.90;;;;;;5074940;28;19912;-74
2023/01/11 03:26:17;;;;;;;;;;;7.70;99.90;;;;;;5075084;28;19920;-74
2023/01/11 03:28:53;;;;;;;;;;;7.70;99.90;;;;;;5074852;28;19966;-75
2023/01/11 03:31:24;;;;;;;;;;;7.60;99.90;;;;;;5057247;28;19913;-74
2023/01/11 03:33:59;;;;;;;;;;;7.50;99.90;;;;;;5074790;28;19999;-74
2023/01/11 03:36:24;;;;;;;;;;;7.30;99.90;;;;;;5074642;28;19960;-74
2023/01/11 03:38:55;;;;;;;;;;;7.20;99.90;;;;;;5074543;28;20380;-73
2023/01/11 03:41:24;;;;;;;;;;;7.00;99.90;;;;;;5074503;28;19912;-74
2023/01/11 03:43:52;;;;;;;;;;;6.90;99.90;;;;;;5074687;28;19939;-74
2023/01/11 03:46:23;;;;;;;;;;;6.80;99.90;;;;;;5074317;28;19920;-74
2023/01/11 03:48:51;;;;;;;;;;;6.70;99.90;;;;;;5074491;28;19952;-75
2023/01/11 03:51:19;;;;;;;;;;;6.90;99.90;;;;;;5074613;28;19913;-74
2023/01/11 03:53:46;;;;;;;;;;;7.00;99.90;;;;;;5073737;28;20268;-75
2023/01/11 03:56:14;;;;;;;;;;;7.00;99.90;;;;;;5074179;28;19913;-74
2023/01/11 03:58:40;;;;;;;;;;;7.10;99.90;;;;;;5074573;28;19912;-74
2023/01/11 04:01:06;;;;;;;;;;;7.10;99.90;;;;;;5074456;28;19920;-74
2023/01/11 04:03:32;;;;;;;;;;;7.10;99.90;;;;;;5056462;28;19917;-73
2023/01/11 04:05:59;;;;;;;;;;;7.10;99.90;;;;;;5074466;28;19920;-75
2023/01/11 04:08:25;;;;;;;;;;;7.00;99.90;;;;;;5056877;28;20390;-74
2023/01/11 04:10:51;;;;;;;;;;;7.20;99.90;;;;;;5074316;28;19960;-74
2023/01/11 04:13:16;;;;;;;;;;;7.20;99.90;;;;;;5056180;28;19920;-74
2023/01/11 04:15:42;;;;;;;;;;;7.30;99.90;;;;;;5074343;28;19924;-75
2023/01/11 04:18:07;;;;;;;;;;;7.30;99.90;;;;;;5056355;28;19916;-75
2023/01/11 04:20:35;;;;;;;;;;;7.30;99.90;;;;;;5074387;28;19913;-75
2023/01/11 04:23:01;;;;;;;;;;;7.30;99.90;;;;;;5056182;28;20284;-74
2023/01/11 04:25:27;;;;;;;;;;;7.40;99.90;;;;;;5074106;28;19921;-75
2023/01/11 04:27:52;;;;;;;;;;;7.40;99.90;;;;;;5074258;28;20079;-73
2023/01/11 04:30:18;;;;;;;;;;;7.50;99.90;;;;;;5074092;28;19912;-76
2023/01/11 04:32:44;;;;;;;;;;;7.60;99.90;;;;;;5056480;28;19913;-77
2023/01/11 04:35:09;;;;;;;;;;;7.60;99.90;;;;;;5056533;28;19913;-76
2023/01/11 04:37:35;;;;;;;;;;;7.70;99.90;;;;;;5074047;28;20372;-73
2023/01/11 04:40:00;;;;;;;;;;;7.70;99.90;;;;;;5074167;28;19920;-75
2023/01/11 04:42:26;;;;;;;;;;;7.70;99.90;;;;;;5074029;28;19909;-74
2023/01/11 04:44:52;;;;;;;;;;;7.60;99.90;;;;;;5073887;28;21454;-73
2023/01/11 04:47:18;;;;;;;;;;;7.60;99.90;;;;;;5074145;28;19916;-75
2023/01/11 04:49:44;;;;;;;;;;;7.60;99.90;;;;;;5073508;28;20267;-73
2023/01/11 04:52:11;;;;;;;;;;;7.60;99.90;;;;;;5073996;28;19920;-75
2023/01/11 04:54:37;;;;;;;;;;;7.60;99.90;;;;;;5056435;28;19912;-75
2023/01/11 04:57:03;;;;;;;;;;;7.50;99.90;;;;;;5073882;28;20006;-73
2023/01/11 04:59:28;;;;;;;;;;;7.60;99.90;;;;;;5073785;28;19913;-73
2023/01/11 05:01:54;;;;;;;;;;;7.60;99.90;;;;;;5055916;28;20003;-73
2023/01/11 05:04:19;;;;;;;;;;;7.60;99.90;;;;;;5056060;28;19913;-76
2023/01/11 05:06:45;;;;;;;;;;;7.60;99.90;;;;;;5070442;28;19920;-73
2023/01/11 05:09:15;;;;;;;;;;;7.50;99.90;;;;;;5056347;28;19960;-75
2023/01/11 05:11:40;;;;;;;;;;;7.40;99.90;;;;;;5051756;28;20364;-73
2023/01/11 05:14:06;;;;;;;;;;;7.30;99.90;;;;;;5053427;28;19917;-73
2023/01/11 05:16:32;;;;;;;;;;;7.00;99.90;;;;;;5035645;28;19913;-73
2023/01/11 05:18:59;;;;;;;;;;;7.00;99.90;;;;;;5050560;28;20011;-75
2023/01/11 05:21:26;;;;;;;;;;;7.00;99.90;;;;;;5055883;28;19913;-73
2023/01/11 05:23:52;;;;;;;;;;;7.00;99.90;;;;;;5055701;28;19923;-74
2023/01/11 05:26:22;;;;;;;;;;;7.20;99.90;;;;;;5076426;28;19921;-73
2023/01/11 05:28:48;;;;;;;;;;;7.20;99.90;;;;;;5077114;28;19912;-75
2023/01/11 05:31:14;;;;;;;;;;;7.30;99.90;;;;;;5077006;28;19920;-73
2023/01/11 05:33:40;;;;;;;;;;;7.30;99.90;;;;;;5077188;28;19958;-78
2023/01/11 05:36:06;;;;;;;;;;;;;;;;;;5076985;28;19912;-73
2023/01/11 05:38:32;;;;;;;;;;;7.50;99.90;;;;;;5077046;28;19916;-74
2023/01/11 05:40:58;;;;;;;;;;;7.50;99.90;;;;;;5058995;28;19917;-74
2023/01/11 05:43:24;;;;;;;;;;;7.50;99.90;;;;;;5076636;28;20364;-74
2023/01/11 05:45:50;;;;;;;;;;;7.50;99.90;;;;;;5076836;28;19946;-74
2023/01/11 05:48:16;;;;;;;;;;;7.40;99.90;;;;;;5058883;28;19912;-74
2023/01/11 05:50:42;;;;;;;;;;;7.50;99.90;;;;;;5076819;28;19917;-73
2023/01/11 05:53:07;;;;;;;;;;;7.50;99.90;;;;;;5075794;28;19920;-74
2023/01/11 05:55:33;;;;;;;;;;;7.50;99.90;;;;;;5074994;28;20402;-74
2023/01/11 05:57:59;;;;;;;;;;;7.50;99.90;;;;;;5074930;28;20402;-75
2023/01/11 06:00:24;;;;;;;;;;;7.50;99.90;;;;;;5075789;28;20052;-74
2023/01/11 06:02:50;;;;;;;;;;;7.50;99.90;;;;;;5057371;28;20279;-75
2023/01/11 06:05:15;;;;;;;;;;;7.50;99.90;;;;;;5076346;28;19920;-74
2023/01/11 06:07:41;;;;;;;;;;;7.50;99.90;;;;;;5058121;28;20339;-74
2023/01/11 06:10:07;;;;;;;;;;;7.50;99.90;;;;;;5075934;28;19918;-75
2023/01/11 06:12:33;;;;;;;;;;;7.30;99.90;;;;;;5057940;28;19916;-74
2023/01/11 06:14:58;;;;;;;;;;;7.10;99.90;;;;;;5075745;28;19917;-74
2023/01/11 06:17:26;;;;;;;;;;;6.90;99.90;;;;;;5075126;28;20435;-74
2023/01/11 06:19:51;;;;;;;;;;;6.70;99.90;;;;;;5075873;28;19999;-73
2023/01/11 06:22:17;;;;;;;;;;;6.60;99.90;;;;;;5076201;28;19942;-74
2023/01/11 06:24:43;;;;;;;;;;;6.60;99.90;;;;;;5058556;28;19919;-73
2023/01/11 06:27:08;;;;;;;;;;;6.60;99.90;;;;;;5075995;28;19927;-73
2023/01/11 06:29:34;;;;;;;;;;;6.50;99.90;;;;;;5057899;28;19920;-75
2023/01/11 06:31:59;;;;;;;;;;;6.40;99.90;;;;;;5075845;28;19912;-74
2023/01/11 06:34:25;;;;;;;;;;;6.40;99.90;;;;;;5076143;28;19982;-74
2023/01/11 06:36:51;;;;;;;;;;;6.50;99.90;;;;;;5075999;28;19913;-77
2023/01/11 06:39:16;;;;;;;;;;;6.50;99.90;;;;;;5075959;28;19965;-74
2023/01/11 06:41:42;;;;;;;;;;;6.40;99.90;;;;;;5057676;28;20382;-72
2023/01/11 06:44:07;;;;;;;;;;;6.40;99.90;;;;;;5075903;28;21003;-73
2023/01/11 06:46:33;;;;;;;;;;;6.40;99.90;;;;;;5057947;28;20010;-74
2023/01/11 06:49:00;;;;;;;;;;;6.10;99.90;;;;;;5058080;28;20483;-81
2023/01/11 06:51:26;;;;;;;;;;;6.20;99.90;;;;;;5075498;28;20361;-78
2023/01/11 06:53:51;;;;;;;;;;;6.00;99.90;;;;;;5075963;28;19912;-73
2023/01/11 06:56:20;;;;;;;;;;;6.10;99.90;;;;;;5075464;28;20431;-74
2023/01/11 06:58:46;;;;;;;;;;;6.10;99.90;;;;;;5057490;28;19913;-74
2023/01/11 07:01:11;;;;;;;;;;;6.10;99.90;;;;;;5056946;28;19970;-76
2023/01/11 07:03:38;;;;;;;;;;;6.20;99.90;;;;;;5075369;28;19912;-77
2023/01/11 07:06:03;;;;;;;;;;;6.20;99.90;;;;;;5075131;28;19928;-73
2023/01/11 07:08:29;;;;;;;;;;;6.20;99.90;;;;;;5075047;28;19913;-75
2023/01/11 07:10:54;;;;;;;;;;;6.20;99.90;;;;;;5075137;28;19916;-74
2023/01/11 07:13:20;;;;;;;;;;;6.10;99.90;;;;;;5075224;28;20007;-73
2023/01/11 07:15:49;;;;;;;;;;;;;;;;;;5075036;28;20276;-73
2023/01/11 07:18:15;;;;;;;;;;;6.10;99.90;;;;;;5075248;28;20287;-76
2023/01/11 07:20:41;;;;;;;;;;;6.10;99.90;;;;;;5074830;28;19913;-74
2023/01/11 07:23:07;;;;;;;;;;;6.10;99.90;;;;;;5074903;28;19912;-74
2023/01/11 07:25:32;;;;;;;;;;;6.10;99.90;;;;;;5074986;28;20011;-74
2023/01/11 07:27:59;;;;;;;;;;;6.20;99.90;;;;;;5057415;28;19912;-75
2023/01/11 07:30:27;;;;;;;;;;;6.20;99.90;;;;;;5075060;28;20375;-75
2023/01/11 07:32:53;;;;;;;;;;;6.30;99.90;;;;;;5074312;28;19913;-73
2023/01/11 07:35:19;;;;;;;;;;;6.40;99.90;;;;;;5074961;28;19920;-72
2023/01/11 07:37:45;;;;;;;;;;;6.40;99.90;;;;;;5075048;28;19912;-74
2023/01/11 07:40:11;;;;;;;;;;;6.40;99.90;;;;;;5075166;28;20360;-78
2023/01/11 07:45:20;;;;;;;;;;;6.50;99.90;;;;;;5074607;28;19923;-77
2023/01/11 07:47:50;;;;;;;;;;;6.50;99.90;;;;;;5056461;28;19913;-73
2023/01/11 07:50:16;;;;;;;;;;;6.60;99.90;;;;;;5074500;28;20003;-71
2023/01/11 07:52:47;;;;;;;;;;;6.40;99.90;;;;;;5056577;28;19963;-70
2023/01/11 07:55:13;;;;;;;;;;;6.30;99.90;;;;;;5074700;28;19919;-72
2023/01/11 07:57:39;;;;;;;;;;;6.20;99.90;;;;;;5057844;28;19912;-71
2023/01/11 08:00:05;;;;;;;;;;;6.20;99.90;;;;;;5074657;28;19913;-71
2023/01/11 08:02:30;;;;;;;;;;;6.30;99.90;;;;;;5074634;28;19913;-74
2023/01/11 08:04:57;;;;;;;;;;;6.30;99.90;;;;;;5074480;28;19924;-77
2023/01/11 08:07:22;;;;;;;;;;;6.30;99.90;;;;;;5057386;28;19920;-74
2023/01/11 08:09:48;;;;;;;;;;;6.30;99.90;;;;;;5057438;28;19913;-73
2023/01/11 08:14:57;;;;;;;;;;;6.30;99.90;;;;;;5075541;28;20030;-74
2023/01/11 08:17:23;;;;;;;;;;;6.20;99.90;;;;;;5057671;28;20371;-77
2023/01/11 08:19:48;;;;;;;;;;;6.10;99.90;;;;;;5075646;28;19916;-74
2023/01/11 08:22:16;;;;;;;;;;;6.20;99.90;;;;;;5073960;28;19920;-81
2023/01/11 08:24:41;;;;;;;;;;;6.30;99.90;;;;;;5074206;28;19912;-79
2023/01/11 08:27:07;;;;;;;;;;;6.40;99.90;;;;;;5074372;28;19917;-82
2023/01/11 08:29:33;;;;;;;;;;;6.50;99.90;;;;;;5075270;28;19944;-75
2023/01/11 08:31:59;;;;;;;;;;;6.60;99.90;;;;;;5076222;28;19913;-77
2023/01/11 08:34:27;;;;;;;;;;;6.70;99.90;;;;;;5074902;28;20003;-77
2023/01/11 08:36:55;;;;;;;;;;;6.70;99.90;;;;;;5074163;28;20013;-80
2023/01/11 08:39:21;;;;;;;;;;;6.80;99.90;;;;;;5056373;28;20252;-78
2023/01/11 08:41:46;;;;;;;;;;;6.70;99.90;;;;;;5056206;28;19923;-78
2023/01/11 08:44:12;;;;;;;;;;;6.90;99.90;;;;;;5073783;28;19916;-79
2023/01/11 08:46:37;;;;;;;;;;;6.90;99.90;;;;;;5052474;28;20416;-79
2023/01/11 08:49:09;;;;;;;;;;;7.10;99.90;;;;;;5072013;28;20016;-79
2023/01/11 08:51:35;;;;;;;;;;;7.20;99.90;;;;;;5071131;28;20377;-78
2023/01/11 08:54:01;;;;;;;;;;;7.20;99.90;;;;;;5071966;28;19913;-77
2023/01/11 08:56:27;;;;;;;;;;;7.30;99.90;;;;;;5070179;28;19940;-82
2023/01/11 08:58:52;;;;;;;;;;;7.40;99.90;;;;;;5071119;28;19939;-80
2023/01/11 09:01:18;;;;;;;;;;;7.40;99.90;;;;;;5056517;28;19912;-82
2023/01/11 09:03:43;;;;;;;;;;;7.40;99.90;;;;;;5075467;28;20316;-78
2023/01/11 09:06:09;;;;;;;;;;;7.40;99.90;;;;;;5057284;28;19975;-77
2023/01/11 09:08:34;;;;;;;;;;;7.40;99.90;;;;;;5076745;28;20367;-78
2023/01/11 09:11:00;;;;;;;;;;;7.40;99.90;;;;;;5077016;28;19913;-79
2023/01/11 09:13:26;;;;;;;;;;;7.50;99.90;;;;;;5071766;28;20020;-77
2023/01/11 09:15:58;;;;;;;;;;;7.50;99.90;;;;;;5036718;28;19921;-76
2023/01/11 09:18:25;;;;;;;;;;;7.40;99.90;;;;;;5057334;28;20003;-77
2023/01/11 09:20:52;;;;;;;;;;;7.40;99.90;;;;;;5067327;28;20431;-77
2023/01/11 09:23:17;;;;;;;;;;;7.50;99.90;;;;;;5077498;28;19951;-76
2023/01/11 09:25:43;;;;;;;;;;;7.50;99.90;;;;;;5077419;28;19963;-75
2023/01/11 09:28:08;;;;;;;;;;;7.50;99.90;;;;;;5077356;28;19914;-75
2023/01/11 09:30:34;;;;;;;;;;;7.60;99.90;;;;;;5077300;28;19913;-76
2023/01/11 09:33:00;;;;;;;;;;;7.50;99.90;;;;;;5077553;28;19912;-79
2023/01/11 09:35:25;;;;;;;;;;;7.60;99.90;;;;;;5059571;28;19913;-79
2023/01/11 09:37:54;;;;;;;;;;;7.60;99.90;;;;;;5077371;28;20098;-75
2023/01/11 09:40:30;;;;;;;;;;;7.60;99.90;;;;;;5059664;28;19916;-77
2023/01/11 09:43:00;;;;;;;;;;;7.60;99.90;;;;;;5059297;28;20407;-79
2023/01/11 09:45:27;;;;;;;;;;;7.60;99.90;;;;;;5059234;28;19916;-81
2023/01/11 09:47:59;;;;;;;;;;;7.60;99.90;;;;;;5077451;28;19917;-79
2023/01/11 09:50:27;;;;;;;;;;;7.40;99.90;;;;;;5077219;28;19917;-76
2023/01/11 09:52:57;;;;;;;;;;;7.40;99.90;;;;;;5077305;28;19919;-76
2023/01/11 09:55:33;;;;;;;;;;;7.50;99.90;;;;;;5077260;28;19916;-78
2023/01/11 09:58:08;;;;;;;;;;;7.60;99.90;;;;;;5077023;28;19912;-81
2023/01/11 10:00:33;;;;;;;;;;;7.60;99.90;;;;;;5058761;28;19919;-78
2023/01/11 10:03:05;;;;;;;;;;;7.50;99.90;;;;;;5076919;28;20279;-77
2023/01/11 10:05:34;;;;;;;;;;;7.20;99.90;;;;;;5076753;28;19920;-76
2023/01/11 10:08:06;;;;;;;;;;;7.30;99.90;;;;;;5058620;28;19920;-77
2023/01/11 10:10:42;;;;;;;;;;;7.40;99.90;;;;;;5058226;28;19916;-77
2023/01/11 10:13:26;;;;;;;;;;;7.20;99.90;;;;;;5076925;28;19920;-77
2023/01/11 10:16:04;;;;;;;;;;;7.10;99.90;;;;;;5058098;28;19973;-77
2023/01/11 10:18:36;;;;;;;;;;;7.10;99.90;;;;;;5076714;28;19912;-77
2023/01/11 10:21:08;;;;;;;;;;;7.10;99.90;;;;;;5076418;28;19955;-77
2023/01/11 10:23:45;;;;;;;;;;;7.30;99.90;;;;;;5076344;28;19913;-76
2023/01/11 10:26:21;;;;;;;;;;;7.40;99.90;;;;;;5076179;28;19920;-82
2023/01/11 10:29:06;;;;;;;;;;;7.50;99.90;;;;;;5058207;28;19917;-82
2023/01/11 10:31:57;;;;;;;;;;;7.60;99.90;;;;;;5058170;28;19988;-77
2023/01/11 10:42:51;;;;;;;;;;;7.60;99.90;;;;;;5075952;28;19939;-81
2023/01/11 10:45:17;;;;;;;;;;;7.60;99.90;;;;;;5075656;28;19917;-79
2023/01/11 10:47:56;;;;;;;;;;;7.60;99.90;;;;;;5057916;28;20352;-78
2023/01/11 10:50:45;;;;;;;;;;;7.60;99.90;;;;;;5075608;28;19916;-78
2023/01/11 10:53:29;;;;;;;;;;;7.70;99.90;;;;;;5021083;28;20375;-78
2023/01/11 10:56:01;;;;;;;;;;;7.80;99.90;;;;;;5075432;28;19920;-77
2023/01/11 10:58:40;;;;;;;;;;;7.80;99.90;;;;;;5075544;28;19944;-81
2023/01/11 11:01:21;;;;;;;;;;;7.70;99.90;;;;;;5075102;28;19920;-78
2023/01/11 11:03:59;;;;;;;;;;;7.50;99.90;;;;;;5075716;28;19962;-79
2023/01/11 11:06:47;;;;;;;;;;;7.60;99.90;;;;;;5074368;28;19966;-77
2023/01/11 11:09:19;;;;;;;;;;;7.70;99.90;;;;;;5073177;28;19923;-78
2023/01/11 11:11:57;;;;;;;;;;;7.70;99.90;;;;;;5074367;28;20375;-77
2023/01/11 11:14:50;;;;;;;;;;;7.80;99.90;;;;;;5075190;28;19923;-80
2023/01/11 11:17:22;;;;;;;;;;;7.80;99.90;;;;;;5072330;28;20314;-77
2023/01/11 11:19:47;;;;;;;;;;;7.80;99.90;;;;;;5075236;28;20352;-81
2023/01/11 11:22:13;;;;;;;;;;;8.00;99.90;;;;;;5074630;28;20007;-77
2023/01/11 11:24:50;;;;;;;;;;;8.00;99.90;;;;;;5074918;28;19920;-78
2023/01/11 11:27:34;;;;;;;;;;;8.00;99.90;;;;;;5075047;28;19927;-80
2023/01/11 11:30:00;;;;;;;;;;;8.00;99.90;;;;;;5056978;28;19920;-79
2023/01/11 11:32:26;;;;;;;;;;;8.10;99.90;;;;;;5053021;28;20360;-77
2023/01/11 11:34:52;;;;;;;;;;;8.10;99.90;;;;;;5054544;28;19912;-76
2023/01/11 11:37:21;;;;;;;;;;;8.50;99.90;;;;;;5072400;28;19909;-76
2023/01/11 11:39:47;;;;;;;;;;;8.40;99.90;;;;;;5073072;28;20024;-81
2023/01/11 11:42:16;;;;;;;;;;;8.30;99.90;;;;;;5054508;28;19955;-76
2023/01/11 11:44:42;;;;;;;;;;;8.30;99.90;;;;;;5070843;28;19916;-75
2023/01/11 11:47:13;;;;;;;;;;;8.20;99.90;;;;;;5053396;28;19916;-76
2023/01/11 11:49:39;;;;;;;;;;;8.20;99.90;;;;;;5055039;28;19913;-75
2023/01/11 11:52:05;;;;;;;;;;;8.20;99.90;;;;;;5072720;28;20457;-75
2023/01/11 11:54:34;;;;;;;;;;;8.30;99.90;;;;;;5074331;28;19942;-75
2023/01/11 11:57:18;;;;;;;;;;;8.40;99.90;;;;;;5074410;28;19918;-77
2023/01/11 11:59:47;;;;;;;;;;;8.40;99.90;;;;;;5071873;28;19912;-75
2023/01/11 12:02:20;;;;;;;;;;;8.40;99.90;;;;;;5071678;28;20332;-74
2023/01/11 12:04:47;;;;;;;;;;;8.40;99.90;;;;;;5072466;28;19920;-80
2023/01/11 12:07:14;;;;;;;;;;;8.50;99.90;;;;;;5073999;28;19956;-76
2023/01/11 12:09:45;;;;;;;;;;;8.40;99.90;;;;;;5055133;28;19913;-76
2023/01/11 12:12:18;;;;;;;;;;;8.40;99.90;;;;;;5071569;28;19967;-76
2023/01/11 12:15:03;;;;;;;;;;;8.50;99.90;;;;;;5065651;28;20287;-74
2023/01/11 12:17:29;;;;;;;;;;;8.50;99.90;;;;;;5053933;28;20344;-80
2023/01/11 12:19:54;;;;;;;;;;;8.40;99.90;;;;;;5054486;28;20003;-81
2023/01/11 12:22:21;;;;;;;;;;;8.50;99.90;;;;;;5053930;28;19962;-75
2023/01/11 12:25:01;;;;;;;;;;;8.50;99.90;;;;;;5073201;28;19923;-76
2023/01/11 12:27:39;;;;;;;;;;;8.40;99.90;;;;;;5072046;28;19966;-75
2023/01/11 12:30:29;;;;;;;;;;;8.50;99.90;;;;;;5054002;28;20390;-75
2023/01/11 12:33:13;;;;;;;;;;;8.50;99.90;;;;;;5072375;28;19912;-75
2023/01/11 12:35:48;;;;;;;;;;;8.50;99.90;;;;;;5075916;28;19912;-80
2023/01/11 12:38:14;;;;;;;;;;;8.50;99.90;;;;;;5077403;28;19912;-78
2023/01/11 12:40:42;;;;;;;;;;;8.60;99.90;;;;;;5075942;28;20439;-78
2023/01/11 12:43:20;;;;;;;;;;;8.50;99.90;;;;;;5057763;28;20249;-76
2023/01/11 12:45:55;;;;;;;;;;;8.60;99.90;;;;;;5075526;28;19920;-77
2023/01/11 12:48:30;;;;;;;;;;;8.60;99.90;;;;;;5075644;28;19913;-78
2023/01/11 12:51:11;;;;;;;;;;;8.60;99.90;;;;;;5076400;28;19917;-77
2023/01/11 12:53:43;;;;;;;;;;;8.70;99.90;;;;;;5059819;28;19912;-75
2023/01/11 12:56:23;;;;;;;;;;;8.70;99.90;;;;;;5057930;28;19920;-75
2023/01/11 12:58:56;;;;;;;;;;;8.80;99.90;;;;;;5057262;28;19999;-75
2023/01/11 13:01:40;;;;;;;;;;;8.80;99.90;;;;;;5075415;28;20002;-78
2023/01/11 13:04:22;;;;;;;;;;;8.80;99.90;;;;;;5058276;28;19912;-76
2023/01/11 13:06:55;;;;;;;;;;;8.90;99.90;;;;;;5075732;28;19926;-77
2023/01/11 13:09:40;;;;;;;;;;;9.00;99.90;;;;;;5075207;28;19924;-77
2023/01/11 13:12:14;;;;;;;;;;;9.00;99.90;;;;;;5055938;28;19923;-76
2023/01/11 13:14:43;;;;;;;;;;;9.10;99.90;;;;;;5054905;28;19978;-76
2023/01/11 13:17:19;;;;;;;;;;;9.10;99.90;;;;;;5037559;28;19913;-76
2023/01/11 13:19:52;;;;;;;;;;;9.20;99.90;;;;;;5064159;28;19913;-76
2023/01/11 13:22:19;;;;;;;;;;;9.80;99.90;;;;;;5075273;28;19912;-76
2023/01/11 13:24:46;;;;;;;;;;;9.20;99.90;;;;;;5057982;28;19966;-77
2023/01/11 13:27:14;;;;;;;;;;;9.20;99.90;;;;;;5075407;28;19966;-76
2023/01/11 13:29:42;;;;;;;;;;;9.20;99.90;;;;;;5074241;28;19917;-76
2023/01/11 13:32:42;;;;;;;;;;;9.20;99.90;;;;;;5058339;28;19961;-76
2023/01/11 13:35:14;;;;;;;;;;;9.20;99.90;;;;;;5041937;28;19955;-76
2023/01/11 13:37:41;;;;;;;;;;;9.10;99.90;;;;;;5075325;28;19916;-76
2023/01/11 13:40:19;;;;;;;;;;;9.20;99.90;;;;;;5057476;28;19920;-75
2023/01/11 13:42:50;;;;;;;;;;;9.30;99.90;;;;;;5076727;28;20287;-75
2023/01/11 13:45:26;;;;;;;;;;;9.10;99.90;;;;;;5073502;28;19923;-76
2023/01/11 13:48:00;;;;;;;;;;;9.20;99.90;;;;;;5076028;28;19912;-75
2023/01/11 13:50:29;;;;;;;;;;;9.20;99.90;;;;;;5075119;28;20314;-75
2023/01/11 13:52:54;;;;;;;;;;;9.20;99.90;;;;;;5074748;28;19913;-75
2023/01/11 13:55:23;;;;;;;;;;;9.20;99.90;;;;;;5056780;28;19912;-75
2023/01/11 13:57:57;;;;;;;;;;;9.10;99.90;;;;;;5075239;28;19920;-77
2023/01/11 14:00:37;;;;;;;;;;;9.20;99.90;;;;;;5073655;28;20352;-74
2023/01/11 14:03:03;;;;;;;;;;;9.20;99.90;;;;;;5074950;28;19913;-76
2023/01/11 14:05:34;;;;;;;;;;;9.10;99.90;;;;;;5074182;28;20367;-76
2023/01/11 14:08:12;;;;;;;;;;;9.10;99.90;;;;;;5076160;28;19918;-76
2023/01/11 14:10:40;;;;;;;;;;;9.10;99.90;;;;;;5056545;28;19912;-75
2023/01/11 14:13:06;;;;;;;;;;;9.30;99.90;;;;;;5073883;28;19985;-76
2023/01/11 14:15:53;;;;;;;;;;;9.20;99.90;;;;;;5056300;28;20347;-75
2023/01/11 14:18:19;;;;;;;;;;;9.20;99.90;;;;;;5055942;28;19913;-76
2023/01/11 14:20:50;;;;;;;;;;;9.10;99.90;;;;;;5071203;28;19912;-75
2023/01/11 14:23:18;;;;;;;;;;;9.10;99.90;;;;;;5075944;28;19920;-75
2023/01/11 14:25:51;;;;;;;;;;;9.20;99.90;;;;;;5075704;28;20272;-75
2023/01/11 14:28:25;;;;;;;;;;;9.20;99.90;;;;;;5075782;28;19959;-74
2023/01/11 14:30:51;;;;;;;;;;;;;;;;;;5053764;28;19919;-75
2023/01/11 14:33:20;;;;;;;;;;;9.00;99.90;;;;;;5055876;28;19916;-78
2023/01/11 14:35:54;;;;;;;;;;;9.00;99.90;;;;;;5054593;28;19920;-77
2023/01/11 14:38:20;;;;;;;;;;;8.90;99.90;;;;;;5053762;28;20387;-78
2023/01/11 14:40:49;;;;;;;;;;;8.90;99.90;;;;;;5068424;28;19912;-78
2023/01/11 14:43:43;;;;;;;;;;;8.90;99.90;;;;;;5074052;28;19912;-77
2023/01/11 14:46:21;;;;;;;;;;;8.90;99.90;;;;;;4985991;28;19926;-76
2023/01/11 14:49:00;;;;;;;;;;;8.80;99.90;;;;;;5055515;28;19916;-75
2023/01/11 14:51:26;;;;;;;;;;;8.80;99.90;;;;;;5053357;28;19974;-77
2023/01/11 14:53:55;;;;;;;;;;;8.80;99.90;;;;;;5053940;28;19956;-76
2023/01/11 14:56:34;;;;;;;;;;;8.80;99.90;;;;;;5055451;28;19948;-77
2023/01/11 14:59:19;;;;;;;;;;;8.80;99.90;;;;;;5054132;28;19967;-79
2023/01/11 15:02:03;;;;;;;;;;;8.80;99.90;;;;;;5073721;28;20269;-79
2023/01/11 15:04:29;;;;;;;;;;;8.80;99.90;;;;;;5074523;28;19913;-78
2023/01/11 15:06:55;;;;;;;;;;;8.80;99.90;;;;;;5073322;28;19928;-75
2023/01/11 15:09:52;;;;;;;;;;;8.80;99.90;;;;;;5054641;28;19913;-74
2023/01/11 15:12:19;;;;;;;;;;;8.70;99.90;;;;;;5056368;28;19916;-74